Kings Worthy, United Kingdom
Current Conditions -  °F | °C
As of 11:50 AM on Thursday 23 Oct 2014 (Local Time) from EGVP Reporting Station
Broken Clouds Broken Clouds  
Wind Chill: 57°   Ceiling: 1300
Heat Index: 57°   Visibility: 6mi
Dew Point: 52°   Wind: 13mph
Humidity: 82%   Direction: 230°SW
Pressure: 30.12"   Gusts: NA
Location:  51.09°N, 1.3°W
Report Text: EGVP 231050Z 23011KT 9999 BKN013 SCT020 BKN032 14/11 Q1020 NOSIG
Loading
Personal Weather Stations






























Interactive Weather Map
Tropical Storm Tracking
New forecast layout! Learn more

10-Day Weather Forecast

Advertisements
Track Severe Weather on mobile